Jordanville, NY

1:53 PM EDT on August 26, 2016 (GMT -0400)
Veit Farms | | Change Station

Elev 735 ft 42.96 °N, 74.68 °W | Updated 13 minutes ago

Clear
Clear
80.0 °F
Feels Like 83 °F
N
10.0
Wind Variable Wind from NNW
Gusts 12.0 mph

Today
High -- | Low -- °F
--% Chance of Precip.
Yesterday
High -- | Low -- °F
Precip. -- in
Pressure 30.04 in
Visibility 10.0 miles
Clouds Clear
Heat Index 83 °F
Dew Point 69 °F
Humidity 68%
Rainfall 0.33 in
Snow Depth Not available.
6:17 AM 7:43 PM
Waning Crescent, 32% visible
METAR KRME 261653Z 27011G18KT 10SM CLR 27/16 A3005 RMK AO2 SLP171 T02670161
Pressure 30.04 in
Visibility 10.0 miles
Clouds Clear
Heat Index 83 °F
Dew Point 69 °F
Humidity 68%
Rainfall 0.33 in
Snow Depth Not available.
6:17 AM 7:43 PM
Waning Crescent, 32% visible
METAR KRME 261653Z 27011G18KT 10SM CLR 27/16 A3005 RMK AO2 SLP171 T02670161

10-Day Weather Forecast

Almanac

Astronomy

Aug. 26, 2016 Rise Set
Actual Time
Civil Twilight
Nautical Twilight
Astronomical Twilight
Moon
Length of Visible Light
Length of Day
Tomorrow will be .
, % of the Moon is Illuminated

Today's Extremes

State Highs State Lows

Community

WunderPhotos

Upload Photos

1,935,152 photos uploaded!

WunderBlog® & News

Nearby

Air Quality

  Air Quality AQ Index Pollutant
Not available.

Snow Depth

Station Depth Elevation

Earthquake Activity

City Distance Mag. Time & Date
Minimum magnitude displayed is 2.5.

Coastal Water Temperatures

Place Temperature

Stations

Nearby Weather Stations

Station Location Temp. Windchill Dew Point Humidity Wind Precip. Elev Updated Type
                   

Watches & Warnings

There are currently no watches in effect.